createdAt,value
2023-03-13T00:01:43.278Z,14.95
2023-03-13T00:04:10.228Z,10.65
2023-03-13T00:09:07.176Z,14.98
2023-03-13T00:11:34.107Z,18.70
2023-03-13T00:14:03.520Z,13.23
2023-03-13T00:16:31.226Z,15.15
2023-03-13T00:18:59.038Z,12.23
2023-03-13T00:21:28.295Z,15.18
2023-03-13T00:23:55.578Z,16.05
2023-03-13T00:26:24.967Z,19.30
2023-03-13T00:28:53.071Z,12.68
2023-03-13T00:31:21.478Z,14.30
2023-03-13T00:33:53.500Z,16.55
2023-03-13T00:36:26.261Z,12.50
2023-03-13T00:38:54.221Z,13.80
2023-03-13T00:41:26.840Z,14.85
2023-03-13T00:43:54.125Z,21.55
2023-03-13T00:46:23.522Z,11.60
2023-03-13T00:48:51.650Z,18.73
2023-03-13T00:51:20.768Z,9.65
2023-03-13T00:53:48.246Z,11.98
2023-03-13T00:56:20.038Z,13.18
2023-03-13T00:58:48.602Z,14.52
2023-03-13T01:01:15.393Z,21.02
2023-03-13T01:03:44.542Z,9.73
2023-03-13T01:06:14.491Z,15.35
2023-03-13T01:08:42.038Z,13.23
2023-03-13T01:11:18.715Z,18.98
2023-03-13T01:13:46.522Z,14.38
2023-03-13T01:16:18.896Z,14.60
2023-03-13T01:18:51.250Z,16.05
2023-03-13T01:21:19.913Z,12.80
2023-03-13T01:23:47.647Z,11.65
2023-03-13T01:26:15.279Z,9.95
2023-03-13T01:28:42.083Z,11.40
2023-03-13T01:31:27.723Z,15.13
2023-03-13T01:33:56.733Z,14.57
2023-03-13T01:36:23.629Z,17.73
2023-03-13T01:41:19.038Z,12.55
2023-03-13T01:43:46.917Z,14.25
2023-03-13T01:46:21.624Z,11.77
2023-03-13T01:49:10.769Z,13.05
2023-03-13T01:52:03.845Z,12.75
2023-03-13T01:54:40.616Z,15.80
2023-03-13T01:57:31.912Z,14.18
2023-03-13T02:00:16.524Z,16.23
2023-03-13T02:02:48.452Z,15.77
2023-03-13T02:05:17.272Z,12.88
2023-03-13T02:08:04.642Z,12.63
2023-03-13T02:10:33.980Z,14.95
2023-03-13T02:13:02.531Z,13.30
2023-03-13T02:15:31.256Z,14.57
2023-03-13T02:17:58.328Z,12.38
2023-03-13T02:20:25.480Z,12.55
2023-03-13T02:23:20.213Z,13.77
2023-03-13T02:25:49.353Z,10.82
2023-03-13T02:28:25.057Z,14.25
2023-03-13T02:30:55.509Z,14.98
2023-03-13T02:33:26.113Z,11.10
2023-03-13T02:35:54.530Z,12.77
2023-03-13T02:38:25.469Z,9.05
2023-03-13T02:40:56.919Z,12.15
2023-03-13T02:43:32.100Z,9.70
2023-03-13T02:48:43.257Z,14.20
2023-03-13T02:51:41.754Z,12.45
2023-03-13T02:54:16.109Z,9.75
2023-03-13T02:56:46.772Z,10.40
2023-03-13T02:59:13.533Z,12.75
2023-03-13T03:01:43.364Z,13.77
2023-03-13T03:04:10.243Z,11.40
2023-03-13T03:06:37.304Z,12.30
2023-03-13T03:09:05.475Z,14.27
2023-03-13T03:11:35.262Z,8.27
2023-03-13T03:14:06.512Z,10.27
2023-03-13T03:16:38.423Z,8.45
2023-03-13T03:19:06.656Z,9.90
2023-03-13T03:21:34.186Z,13.70
2023-03-13T03:24:01.242Z,10.13
2023-03-13T03:26:28.053Z,10.45
2023-03-13T03:28:55.226Z,16.02
2023-03-13T03:33:48.989Z,13.02
2023-03-13T03:36:21.353Z,8.75
2023-03-13T03:38:48.968Z,16.08
2023-03-13T03:41:19.222Z,12.93
2023-03-13T03:43:47.475Z,9.13
2023-03-13T03:46:17.341Z,11.77
2023-03-13T03:48:44.314Z,9.23
2023-03-13T03:51:12.694Z,9.65
2023-03-13T03:53:42.046Z,13.52
2023-03-13T03:58:39.990Z,9.23
2023-03-13T04:01:32.934Z,10.68
2023-03-13T04:04:00.110Z,15.38
2023-03-13T04:08:54.162Z,13.15
2023-03-13T04:11:23.530Z,16.55
2023-03-13T04:13:53.752Z,8.63
2023-03-13T04:18:48.557Z,8.70
2023-03-13T04:21:17.143Z,10.63
2023-03-13T04:23:48.742Z,9.57
2023-03-13T04:26:16.112Z,15.35
2023-03-13T04:28:43.650Z,10.63
2023-03-13T04:31:14.314Z,12.13
2023-03-13T04:33:56.416Z,7.32
2023-03-13T04:36:49.990Z,8.20
2023-03-13T04:39:33.214Z,14.98
2023-03-13T04:42:16.873Z,8.02
2023-03-13T04:45:02.519Z,6.70
2023-03-13T04:47:47.674Z,8.07
2023-03-13T04:50:37.671Z,9.00
2023-03-13T04:53:11.776Z,7.60
2023-03-13T04:55:50.794Z,7.18
2023-03-13T04:58:36.692Z,9.15
2023-03-13T05:01:23.801Z,5.53
2023-03-13T05:04:10.409Z,7.18
2023-03-13T05:06:48.428Z,9.95
2023-03-13T05:09:41.615Z,8.73
2023-03-13T05:12:27.031Z,8.60
2023-03-13T05:15:10.517Z,7.32
2023-03-13T05:17:55.043Z,8.93
2023-03-13T05:20:51.269Z,9.05
2023-03-13T05:23:32.308Z,6.10
2023-03-13T05:26:17.845Z,7.85
2023-03-13T05:29:13.467Z,7.07
2023-03-13T05:32:12.634Z,9.13
2023-03-13T05:34:57.899Z,5.15
2023-03-13T05:37:25.720Z,5.38
2023-03-13T05:40:10.253Z,5.45
2023-03-13T05:42:57.537Z,7.20
2023-03-13T05:45:42.779Z,8.25
2023-03-13T05:48:29.692Z,3.53
2023-03-13T05:51:05.314Z,5.68
2023-03-13T05:53:55.053Z,6.68
2023-03-13T05:56:42.953Z,5.65
2023-03-13T05:59:31.654Z,6.18
2023-03-13T06:02:17.107Z,7.07
2023-03-13T06:04:47.267Z,8.38
2023-03-13T06:07:14.266Z,5.75
2023-03-13T06:12:10.606Z,11.45
2023-03-13T06:14:40.554Z,9.90
2023-03-13T06:17:27.984Z,5.03
2023-03-13T06:19:54.641Z,7.38
2023-03-13T06:22:21.449Z,5.68
2023-03-13T06:24:49.634Z,5.00
2023-03-13T06:27:17.044Z,5.75
2023-03-13T06:29:43.801Z,4.50
2023-03-13T06:32:10.769Z,3.17
2023-03-13T06:34:37.957Z,5.18
2023-03-13T06:37:04.762Z,4.90
2023-03-13T06:39:31.548Z,3.35
2023-03-13T06:41:58.417Z,3.35
2023-03-13T06:44:25.425Z,4.57
2023-03-13T06:49:18.852Z,2.53
2023-03-13T06:51:45.517Z,6.03
2023-03-13T06:54:12.170Z,7.78
2023-03-13T06:56:39.041Z,3.65
2023-03-13T07:01:32.428Z,2.90
2023-03-13T07:03:59.213Z,5.93
2023-03-13T07:06:26.997Z,3.88
2023-03-13T07:08:53.821Z,4.80
2023-03-13T07:11:20.607Z,2.83
2023-03-13T07:13:47.389Z,2.78
2023-03-13T07:16:14.389Z,2.17
2023-03-13T07:18:46.980Z,3.80
2023-03-13T07:21:14.585Z,3.17
2023-03-13T07:23:41.838Z,2.45
2023-03-13T07:26:13.015Z,2.85
2023-03-13T07:28:40.020Z,4.25
2023-03-13T07:31:10.595Z,3.40
2023-03-13T07:33:37.442Z,3.45
2023-03-13T07:38:31.346Z,2.90
2023-03-13T07:43:25.938Z,1.85
2023-03-13T07:46:00.196Z,2.55
2023-03-13T07:48:38.748Z,2.75
2023-03-13T07:51:07.905Z,4.00
2023-03-13T07:53:35.127Z,3.90
2023-03-13T07:56:12.890Z,2.95
2023-03-13T07:58:41.174Z,2.10
2023-03-13T08:01:26.853Z,2.25
2023-03-13T08:03:55.865Z,2.97
2023-03-13T08:06:24.790Z,2.90
2023-03-13T08:08:52.633Z,4.15
2023-03-13T08:11:25.123Z,1.88
2023-03-13T08:13:53.826Z,2.75
2023-03-13T08:16:25.898Z,2.22
2023-03-13T08:18:55.074Z,2.72
2023-03-13T08:21:24.385Z,2.50
2023-03-13T08:23:56.665Z,2.67
2023-03-13T08:26:27.393Z,3.72
2023-03-13T08:29:02.217Z,4.57
2023-03-13T08:31:33.857Z,3.53
2023-03-13T08:34:00.982Z,3.08
2023-03-13T08:36:33.586Z,7.63
2023-03-13T08:39:02.323Z,2.95
2023-03-13T08:41:33.802Z,3.25
2023-03-13T08:44:00.730Z,2.78
2023-03-13T08:48:56.719Z,2.45
2023-03-13T08:51:25.665Z,3.40
2023-03-13T08:53:53.042Z,4.90
2023-03-13T08:56:22.796Z,5.00
2023-03-13T08:58:54.624Z,3.35
2023-03-13T09:01:23.667Z,2.67
2023-03-13T09:03:50.707Z,5.32
2023-03-13T09:06:17.531Z,3.72
2023-03-13T09:11:16.197Z,4.30
2023-03-13T09:13:44.904Z,4.03
2023-03-13T09:16:20.978Z,2.92
2023-03-13T09:18:48.121Z,2.58
2023-03-13T09:21:24.341Z,3.47
2023-03-13T09:23:51.911Z,7.03
2023-03-13T09:26:22.613Z,2.40
2023-03-13T09:28:50.150Z,2.72
2023-03-13T09:31:23.005Z,2.70
2023-03-13T09:33:50.757Z,3.53
2023-03-13T09:36:21.472Z,4.32
2023-03-13T09:38:48.660Z,2.60
2023-03-13T09:41:18.254Z,3.92
2023-03-13T09:44:02.606Z,3.35
2023-03-13T09:46:35.276Z,6.00
2023-03-13T09:49:12.938Z,3.63
2023-03-13T09:51:42.864Z,3.22
2023-03-13T09:54:25.848Z,3.92
2023-03-13T09:56:54.821Z,3.22
2023-03-13T09:59:40.072Z,4.43
2023-03-13T10:02:33.687Z,3.67
2023-03-13T10:05:06.546Z,3.40
2023-03-13T10:07:33.448Z,3.45
2023-03-13T10:12:43.269Z,3.92
2023-03-13T10:15:27.963Z,5.03
2023-03-13T10:17:55.848Z,10.25
2023-03-13T10:20:24.128Z,5.85
2023-03-13T10:23:05.052Z,8.55
2023-03-13T10:25:38.441Z,6.72
2023-03-13T10:28:09.115Z,3.50
2023-03-13T10:30:39.450Z,6.03
2023-03-13T10:33:12.325Z,8.35
2023-03-13T10:35:41.966Z,4.78
2023-03-13T10:38:19.107Z,4.13
2023-03-13T10:41:10.576Z,6.30
2023-03-13T10:43:51.720Z,4.40
2023-03-13T10:46:30.527Z,4.20
2023-03-13T10:49:00.587Z,3.38
2023-03-13T10:51:37.674Z,4.75
2023-03-13T10:54:37.567Z,4.40
2023-03-13T10:57:19.524Z,4.25
2023-03-13T10:59:48.821Z,3.28
2023-03-13T11:02:44.649Z,3.88
2023-03-13T11:05:23.795Z,4.15
2023-03-13T11:07:51.886Z,3.13
2023-03-13T11:10:21.664Z,4.13
2023-03-13T11:12:56.324Z,4.45
2023-03-13T11:15:31.195Z,3.53
2023-03-13T11:18:13.793Z,5.55
2023-03-13T11:20:42.561Z,4.22
2023-03-13T11:23:30.167Z,4.63
2023-03-13T11:26:37.049Z,2.80
2023-03-13T11:29:26.268Z,5.43
2023-03-13T11:32:07.428Z,4.65
2023-03-13T11:34:54.129Z,4.45
2023-03-13T11:37:22.487Z,3.70
2023-03-13T11:39:55.721Z,4.97
2023-03-13T11:42:31.459Z,5.22
2023-03-13T11:45:28.642Z,2.50
2023-03-13T11:48:01.115Z,2.58
2023-03-13T11:50:42.861Z,3.47
2023-03-13T11:53:41.631Z,3.22
2023-03-13T11:56:33.569Z,3.25
2023-03-13T11:59:28.186Z,2.58
2023-03-13T12:02:01.875Z,5.35
2023-03-13T12:04:36.813Z,2.40
2023-03-13T12:07:15.751Z,3.42
2023-03-13T12:10:02.150Z,3.95
2023-03-13T12:12:49.764Z,4.18
2023-03-13T12:15:37.387Z,5.35
2023-03-13T12:18:17.871Z,3.67
2023-03-13T12:21:08.165Z,4.18
2023-03-13T12:23:55.005Z,4.13
2023-03-13T12:26:51.051Z,5.43
2023-03-13T12:29:20.507Z,3.63
2023-03-13T12:32:18.639Z,3.78
2023-03-13T12:34:59.340Z,5.88
2023-03-13T12:37:41.922Z,4.45
2023-03-13T12:40:16.425Z,6.13
2023-03-13T12:43:10.669Z,5.30
2023-03-13T12:45:48.938Z,4.15
2023-03-13T12:48:26.059Z,5.38
2023-03-13T12:51:15.520Z,3.70
2023-03-13T12:53:53.557Z,3.60
2023-03-13T12:56:48.545Z,4.35
2023-03-13T12:59:30.837Z,2.97
2023-03-13T13:01:58.985Z,5.97
2023-03-13T13:04:44.150Z,5.63
2023-03-13T13:07:33.177Z,5.72
2023-03-13T13:10:11.978Z,3.97
2023-03-13T13:12:43.743Z,4.13
2023-03-13T13:15:22.444Z,4.32
2023-03-13T13:18:10.766Z,3.65
2023-03-13T13:20:49.684Z,5.65
2023-03-13T13:23:36.883Z,5.20
2023-03-13T13:26:30.012Z,3.25
2023-03-13T13:29:01.422Z,3.50
2023-03-13T13:31:52.378Z,4.45
2023-03-13T13:34:55.681Z,2.50
2023-03-13T13:37:22.601Z,2.55
2023-03-13T13:39:52.788Z,3.72
2023-03-13T13:42:35.368Z,2.75
2023-03-13T13:45:22.367Z,2.33
2023-03-13T13:47:50.322Z,2.60
2023-03-13T13:50:23.039Z,2.08
2023-03-13T13:52:51.205Z,3.70
2023-03-13T13:55:30.297Z,3.28
2023-03-13T13:58:04.340Z,3.08
2023-03-13T14:01:10.904Z,1.35
2023-03-13T14:03:43.396Z,3.45
2023-03-13T14:06:24.034Z,2.05
2023-03-13T14:08:55.112Z,2.22
2023-03-13T14:11:34.467Z,4.43
2023-03-13T14:14:17.357Z,2.50
2023-03-13T14:16:52.594Z,3.38
2023-03-13T14:19:34.263Z,3.40
2023-03-13T14:22:07.117Z,3.63
2023-03-13T14:24:34.939Z,3.50
2023-03-13T14:27:02.260Z,2.33
2023-03-13T14:29:29.132Z,7.45
2023-03-13T14:31:58.364Z,2.78
2023-03-13T14:34:31.501Z,3.47
2023-03-13T14:37:17.301Z,2.03
2023-03-13T14:39:46.104Z,2.35
2023-03-13T14:42:18.498Z,2.70
2023-03-13T14:44:53.419Z,3.15
2023-03-13T14:47:32.010Z,2.58
2023-03-13T14:50:05.468Z,4.20
2023-03-13T14:52:32.844Z,3.47
2023-03-13T14:55:24.245Z,1.60
2023-03-13T14:57:56.754Z,6.72
2023-03-13T15:00:32.894Z,2.35
2023-03-13T15:03:19.877Z,3.40
2023-03-13T15:06:14.185Z,1.67
2023-03-13T15:08:44.374Z,2.53
2023-03-13T15:11:26.562Z,2.78
2023-03-13T15:13:53.917Z,1.98
2023-03-13T15:16:22.293Z,1.48
2023-03-13T15:18:50.823Z,3.08
2023-03-13T15:21:22.563Z,3.65
2023-03-13T15:24:13.142Z,3.22
2023-03-13T15:26:39.928Z,3.00
2023-03-13T15:29:07.039Z,4.70
2023-03-13T15:31:33.917Z,4.25
2023-03-13T15:34:01.749Z,4.05
2023-03-13T15:36:30.104Z,5.47
2023-03-13T15:38:57.395Z,2.85
2023-03-13T15:41:24.259Z,4.72
2023-03-13T15:46:25.044Z,5.90
2023-03-13T15:48:52.190Z,5.65
2023-03-13T15:51:18.969Z,4.60
2023-03-13T15:53:46.366Z,4.72
2023-03-13T15:56:16.700Z,6.05
2023-03-13T15:58:44.946Z,4.47
2023-03-13T16:01:13.683Z,4.38
2023-03-13T16:03:41.353Z,4.00
2023-03-13T16:06:14.347Z,3.92
2023-03-13T16:08:41.278Z,4.72
2023-03-13T16:13:34.757Z,4.32
2023-03-13T16:16:01.538Z,4.13
2023-03-13T16:18:28.403Z,6.13
2023-03-13T16:20:55.275Z,5.95
2023-03-13T16:23:23.726Z,3.28
2023-03-13T16:25:50.519Z,4.13
2023-03-13T16:28:20.104Z,2.50
2023-03-13T16:30:47.675Z,6.28
2023-03-13T16:33:15.027Z,3.33
2023-03-13T16:35:41.895Z,8.02
2023-03-13T16:40:38.550Z,2.70
2023-03-13T16:43:05.378Z,7.22
2023-03-13T16:45:32.113Z,3.80
2023-03-13T16:47:59.012Z,3.42
2023-03-13T16:52:59.007Z,4.38
2023-03-13T16:58:00.311Z,2.53
2023-03-13T17:00:29.459Z,4.75
2023-03-13T17:02:58.079Z,3.92
2023-03-13T17:05:26.930Z,2.92
2023-03-13T17:07:54.270Z,2.42
2023-03-13T17:10:32.234Z,3.83
2023-03-13T17:13:01.053Z,3.40
2023-03-13T17:15:29.132Z,9.05
2023-03-13T17:17:56.091Z,7.05
2023-03-13T17:20:28.362Z,4.90
2023-03-13T17:23:01.077Z,4.97
2023-03-13T17:25:27.842Z,4.97
2023-03-13T17:27:54.780Z,3.05
2023-03-13T17:32:51.062Z,4.70
2023-03-13T17:35:19.493Z,3.00
2023-03-13T17:37:47.049Z,4.90
2023-03-13T17:40:19.455Z,4.85
2023-03-13T17:42:46.648Z,4.05
2023-03-13T17:45:14.166Z,2.80
2023-03-13T17:47:41.731Z,5.40
2023-03-13T17:50:14.557Z,3.75
2023-03-13T17:52:41.903Z,4.85
2023-03-13T17:55:09.365Z,3.70
2023-03-13T17:57:36.105Z,5.22
2023-03-13T18:00:03.992Z,5.25
2023-03-13T18:02:38.609Z,3.75
2023-03-13T18:07:32.315Z,6.10
2023-03-13T18:09:59.110Z,7.75
2023-03-13T18:12:25.934Z,6.15
2023-03-13T18:14:52.716Z,4.82
2023-03-13T18:17:23.250Z,9.38
2023-03-13T18:19:50.860Z,7.50
2023-03-13T18:22:21.532Z,5.43
2023-03-13T18:24:48.262Z,6.10
2023-03-13T18:27:17.465Z,10.02
2023-03-13T18:29:46.246Z,6.72
2023-03-13T18:32:15.091Z,5.97
2023-03-13T18:34:42.662Z,6.18
2023-03-13T18:37:30.817Z,8.23
2023-03-13T18:39:58.089Z,6.05
2023-03-13T18:42:25.283Z,7.10
2023-03-13T18:44:52.833Z,6.03
2023-03-13T18:47:22.113Z,5.80
2023-03-13T18:49:49.943Z,6.80
2023-03-13T18:52:17.262Z,5.82
2023-03-13T18:54:44.906Z,5.50
2023-03-13T18:57:19.844Z,4.35
2023-03-13T18:59:46.861Z,4.57
2023-03-13T19:02:18.411Z,4.70
2023-03-13T19:04:47.174Z,7.57
2023-03-13T19:07:16.425Z,6.63
2023-03-13T19:09:44.746Z,3.60
2023-03-13T19:12:13.241Z,3.92
2023-03-13T19:17:29.384Z,3.60
2023-03-13T19:19:59.011Z,2.97
2023-03-13T19:22:26.379Z,4.20
2023-03-13T19:24:53.366Z,4.10
2023-03-13T19:27:20.496Z,2.30
2023-03-13T19:29:47.876Z,2.95
2023-03-13T19:32:16.233Z,3.38
2023-03-13T19:34:43.433Z,2.83
2023-03-13T19:37:15.792Z,2.00
2023-03-13T19:39:42.841Z,3.50
2023-03-13T19:42:09.752Z,2.78
2023-03-13T19:47:07.452Z,2.80
2023-03-13T19:49:34.346Z,2.83
2023-03-13T19:54:27.961Z,4.22
2023-03-13T19:56:54.869Z,2.75
2023-03-13T19:59:31.399Z,3.72
2023-03-13T20:01:59.563Z,2.17
2023-03-13T20:04:27.396Z,2.92
2023-03-13T20:06:54.152Z,4.47
2023-03-13T20:09:21.535Z,2.13
2023-03-13T20:11:48.629Z,1.90
2023-03-13T20:14:15.724Z,1.60
2023-03-13T20:16:43.652Z,1.45
2023-03-13T20:19:10.620Z,2.15
2023-03-13T20:24:08.297Z,1.98
2023-03-13T20:26:35.232Z,2.45
2023-03-13T20:31:31.278Z,2.42
2023-03-13T20:33:58.924Z,2.67
2023-03-13T20:36:26.428Z,2.97
2023-03-13T20:38:53.671Z,2.58
2023-03-13T20:41:25.014Z,1.85
2023-03-13T20:43:52.791Z,2.15
2023-03-13T20:46:28.323Z,1.17
2023-03-13T20:48:57.860Z,1.52
2023-03-13T20:51:26.083Z,2.25
2023-03-13T20:53:53.366Z,1.58
2023-03-13T20:56:20.591Z,3.03
2023-03-13T20:58:48.300Z,3.55
2023-03-13T21:01:19.247Z,4.22
2023-03-13T21:03:46.941Z,2.33
2023-03-13T21:06:18.497Z,2.30
2023-03-13T21:08:46.414Z,1.95
2023-03-13T21:11:16.935Z,3.08
2023-03-13T21:13:44.722Z,2.50
2023-03-13T21:16:14.012Z,2.53
2023-03-13T21:18:41.448Z,1.75
2023-03-13T21:21:12.287Z,2.25
2023-03-13T21:23:39.390Z,3.88
2023-03-13T21:28:33.939Z,2.63
